createdAt,value
2022-10-30T11:23:36.048Z,0.80
2022-10-30T11:26:03.259Z,0.77
2022-10-30T11:28:54.887Z,1.10
2022-10-30T11:31:35.073Z,2.53
2022-10-30T11:34:33.059Z,1.07
2022-10-30T11:37:00.129Z,0.63
2022-10-30T11:39:29.444Z,0.70
2022-10-30T11:42:13.268Z,0.70
2022-10-30T11:44:51.542Z,0.80
2022-10-30T11:47:30.023Z,0.70
2022-10-30T11:50:03.408Z,1.43
2022-10-30T11:52:36.097Z,0.87
2022-10-30T11:55:19.415Z,1.33
2022-10-30T11:57:52.489Z,1.43
2022-10-30T12:00:23.002Z,0.90
2022-10-30T12:02:52.442Z,0.90
2022-10-30T12:05:30.253Z,0.70
2022-10-30T12:08:10.791Z,1.03
2022-10-30T12:10:56.289Z,0.70
2022-10-30T12:13:25.116Z,0.60
2022-10-30T12:16:14.129Z,1.10
2022-10-30T12:18:41.729Z,1.00
2022-10-30T12:21:09.346Z,1.20
2022-10-30T12:23:36.818Z,1.00
2022-10-30T12:26:15.546Z,1.13
2022-10-30T12:28:54.353Z,1.20
2022-10-30T12:31:32.775Z,1.17
2022-10-30T12:34:34.254Z,1.10
2022-10-30T12:37:17.794Z,0.93
2022-10-30T12:39:54.394Z,1.50
2022-10-30T12:42:25.169Z,1.67
2022-10-30T12:45:01.082Z,1.27
2022-10-30T12:47:44.161Z,1.17
2022-10-30T12:50:14.015Z,1.57
2022-10-30T12:52:56.665Z,0.90
2022-10-30T12:55:40.109Z,0.67
2022-10-30T12:58:38.682Z,0.83
2022-10-30T13:01:17.492Z,2.60
2022-10-30T13:04:09.096Z,0.93
2022-10-30T13:06:46.089Z,1.90
2022-10-30T13:09:17.290Z,1.37
2022-10-30T13:12:09.545Z,1.30
2022-10-30T13:15:16.875Z,1.00
2022-10-30T13:17:43.821Z,1.00
2022-10-30T13:20:15.441Z,1.20
2022-10-30T13:22:55.743Z,1.10
2022-10-30T13:25:43.022Z,0.77
2022-10-30T13:28:47.480Z,1.50
2022-10-30T13:31:53.503Z,0.90
2022-10-30T13:34:26.529Z,1.73
2022-10-30T13:37:06.570Z,1.40
2022-10-30T13:40:08.749Z,1.17
2022-10-30T13:43:00.807Z,1.30
2022-10-30T13:45:47.274Z,1.17
2022-10-30T13:48:26.977Z,1.17
2022-10-30T13:51:34.998Z,1.10
2022-10-30T13:54:27.499Z,0.80
2022-10-30T13:56:56.878Z,0.93
2022-10-30T13:59:32.685Z,2.17
2022-10-30T14:02:09.378Z,1.20
2022-10-30T14:04:47.640Z,1.30
2022-10-30T14:07:29.930Z,1.20
2022-10-30T14:10:09.262Z,1.33
2022-10-30T14:13:13.743Z,1.30
2022-10-30T14:15:46.120Z,1.37
2022-10-30T14:18:13.138Z,1.73
2022-10-30T14:20:41.276Z,1.67
2022-10-30T14:23:25.282Z,1.43
2022-10-30T14:26:05.004Z,1.90
2022-10-30T14:28:34.486Z,1.90
2022-10-30T14:31:05.775Z,1.50
2022-10-30T14:33:49.349Z,1.37
2022-10-30T14:36:23.445Z,1.10
2022-10-30T14:39:00.098Z,1.40
2022-10-30T14:41:56.768Z,1.33
2022-10-30T14:44:43.956Z,1.63
2022-10-30T14:47:30.386Z,1.00
2022-10-30T14:50:24.037Z,0.90
2022-10-30T14:53:06.334Z,0.90
2022-10-30T14:55:48.009Z,2.17
2022-10-30T14:58:26.438Z,1.50
2022-10-30T15:01:19.546Z,1.30
2022-10-30T15:03:59.191Z,1.40
2022-10-30T15:06:36.506Z,1.50
2022-10-30T15:09:45.171Z,1.53
2022-10-30T15:12:34.566Z,1.20
2022-10-30T15:15:11.161Z,1.30
2022-10-30T15:17:50.816Z,1.63
2022-10-30T15:20:24.135Z,1.27
2022-10-30T15:23:09.217Z,1.13
2022-10-30T15:25:47.805Z,1.30
2022-10-30T15:28:22.304Z,1.30
2022-10-30T15:31:06.973Z,1.57
2022-10-30T15:33:38.267Z,1.30
2022-10-30T15:36:05.867Z,1.47
2022-10-30T15:38:33.093Z,1.80
2022-10-30T15:41:02.843Z,2.00
2022-10-30T15:43:42.217Z,1.40
2022-10-30T15:46:14.964Z,2.00
2022-10-30T15:48:46.835Z,1.30
2022-10-30T15:51:20.733Z,1.53
2022-10-30T15:53:55.868Z,3.20
2022-10-30T15:57:08.155Z,1.73
2022-10-30T15:59:35.344Z,1.30
2022-10-30T16:02:02.683Z,1.50
2022-10-30T16:04:36.706Z,1.43
2022-10-30T16:07:18.419Z,1.83
2022-10-30T16:10:03.947Z,2.40
2022-10-30T16:12:34.161Z,2.40
2022-10-30T16:15:07.688Z,2.77
2022-10-30T16:17:36.065Z,2.23
2022-10-30T16:20:06.069Z,2.57
2022-10-30T16:22:39.698Z,1.90
2022-10-30T16:25:08.753Z,2.63
2022-10-30T16:27:46.885Z,2.10
2022-10-30T16:30:16.463Z,2.20
2022-10-30T16:32:51.739Z,2.33
2022-10-30T16:35:22.327Z,1.80
2022-10-30T16:37:50.920Z,2.20
2022-10-30T16:40:23.890Z,2.23
2022-10-30T16:43:01.199Z,2.20
2022-10-30T16:45:34.693Z,2.60
2022-10-30T16:48:09.478Z,2.80
2022-10-30T16:50:40.734Z,3.53
2022-10-30T16:53:29.538Z,2.67
2022-10-30T16:55:58.823Z,2.73
2022-10-30T16:58:31.722Z,2.40
2022-10-30T17:01:08.678Z,2.07
2022-10-30T17:03:45.315Z,2.00
2022-10-30T17:06:35.251Z,2.13
2022-10-30T17:09:18.867Z,2.20
2022-10-30T17:12:00.466Z,1.93
2022-10-30T17:14:30.540Z,3.00
2022-10-30T17:17:00.998Z,2.63
2022-10-30T17:19:31.349Z,2.23
2022-10-30T17:22:04.860Z,2.50
2022-10-30T17:24:37.322Z,2.73
2022-10-30T17:27:26.005Z,3.13
2022-10-30T17:29:56.199Z,3.10
2022-10-30T17:32:27.959Z,3.03
2022-10-30T17:35:15.248Z,4.00
2022-10-30T17:37:43.130Z,3.87
2022-10-30T17:40:18.049Z,2.20
2022-10-30T17:42:45.578Z,2.97
2022-10-30T17:45:14.190Z,2.57
2022-10-30T17:47:41.564Z,2.77
2022-10-30T17:50:09.160Z,3.07
2022-10-30T17:52:36.511Z,3.73
2022-10-30T17:55:18.602Z,3.00
2022-10-30T17:57:47.029Z,3.63
2022-10-30T18:00:14.438Z,3.50
2022-10-30T18:02:41.900Z,3.17
2022-10-30T18:05:21.094Z,3.27
2022-10-30T18:10:20.212Z,3.77
2022-10-30T18:12:47.334Z,4.40
2022-10-30T18:15:32.538Z,4.40
2022-10-30T18:17:59.570Z,4.93
2022-10-30T18:20:27.167Z,4.70
2022-10-30T18:22:55.837Z,3.80
2022-10-30T18:25:33.878Z,3.77
2022-10-30T18:28:01.357Z,4.23
2022-10-30T18:30:29.251Z,3.60
2022-10-30T18:32:57.280Z,3.73
2022-10-30T18:35:36.592Z,3.60
2022-10-30T18:38:04.491Z,5.07
2022-10-30T18:40:31.694Z,4.80
2022-10-30T18:42:59.537Z,3.80
2022-10-30T18:45:29.462Z,4.90
2022-10-30T18:47:57.914Z,4.50
2022-10-30T18:50:25.273Z,3.90
2022-10-30T18:52:52.514Z,4.93
2022-10-30T18:55:22.876Z,5.03
2022-10-30T18:57:51.483Z,5.60
2022-10-30T19:00:23.752Z,5.50
2022-10-30T19:02:54.313Z,4.20
2022-10-30T19:05:47.571Z,4.10
2022-10-30T19:08:15.454Z,3.13
2022-10-30T19:10:47.077Z,3.37
2022-10-30T19:13:22.693Z,3.60
2022-10-30T19:15:54.784Z,3.70
2022-10-30T19:18:28.548Z,3.77
2022-10-30T19:21:04.506Z,3.23
2022-10-30T19:23:33.053Z,5.70
2022-10-30T19:26:00.430Z,3.77
2022-10-30T19:28:27.570Z,4.27
2022-10-30T19:30:55.056Z,3.50
2022-10-30T19:33:23.711Z,4.87
2022-10-30T19:36:14.400Z,3.73
2022-10-30T19:38:50.370Z,3.53
2022-10-30T19:44:01.867Z,3.87
2022-10-30T19:46:37.003Z,3.20
2022-10-30T19:49:20.515Z,3.27
2022-10-30T19:51:49.475Z,4.80
2022-10-30T19:54:18.997Z,6.03
2022-10-30T19:56:59.433Z,3.40
2022-10-30T19:59:28.289Z,3.97
2022-10-30T20:02:02.846Z,3.37
2022-10-30T20:04:42.137Z,3.43
2022-10-30T20:07:09.617Z,3.53
2022-10-30T20:09:36.444Z,4.10
2022-10-30T20:12:08.326Z,3.70
2022-10-30T20:14:35.700Z,4.80
2022-10-30T20:17:18.282Z,3.90
2022-10-30T20:20:07.322Z,4.17
2022-10-30T20:22:34.413Z,3.50
2022-10-30T20:25:02.177Z,3.50
2022-10-30T20:30:36.961Z,3.23
2022-10-30T20:33:04.668Z,3.60
2022-10-30T20:35:31.879Z,2.90
2022-10-30T20:38:01.479Z,3.00
2022-10-30T20:40:29.472Z,3.07
2022-10-30T20:43:02.977Z,3.13
2022-10-30T20:45:30.551Z,3.00
2022-10-30T20:47:57.792Z,3.17
2022-10-30T20:50:25.061Z,3.10
2022-10-30T20:52:53.629Z,3.20
2022-10-30T20:55:21.080Z,3.40
2022-10-30T20:57:48.150Z,2.93
2022-10-30T21:00:15.838Z,3.53
2022-10-30T21:02:42.886Z,3.77
2022-10-30T21:05:17.614Z,4.40
2022-10-30T21:07:58.198Z,3.13
2022-10-30T21:10:30.174Z,2.77
2022-10-30T21:12:59.785Z,3.03
2022-10-30T21:15:29.945Z,3.10
2022-10-30T21:17:57.224Z,3.13
2022-10-30T21:20:25.111Z,2.80
2022-10-30T21:22:52.090Z,3.53
2022-10-30T21:25:18.994Z,3.97
2022-10-30T21:30:17.997Z,3.10
2022-10-30T21:32:44.903Z,3.13
2022-10-30T21:35:11.793Z,3.37
2022-10-30T21:37:39.039Z,3.70
2022-10-30T21:40:06.849Z,3.83
2022-10-30T21:42:33.967Z,3.77
2022-10-30T21:45:01.146Z,3.97
2022-10-30T21:47:28.081Z,3.03
2022-10-30T21:49:55.167Z,3.40
2022-10-30T21:52:22.134Z,4.27
2022-10-30T21:54:49.041Z,3.40
2022-10-30T21:57:15.968Z,3.33
2022-10-30T21:59:42.963Z,3.17
2022-10-30T22:02:14.621Z,3.03
2022-10-30T22:04:41.622Z,3.90
2022-10-30T22:07:08.925Z,3.20
2022-10-30T22:09:35.901Z,3.40
2022-10-30T22:12:02.922Z,3.60
2022-10-30T22:14:30.260Z,3.70
2022-10-30T22:16:57.058Z,3.50
2022-10-30T22:19:24.058Z,3.20
2022-10-30T22:21:51.102Z,3.13
2022-10-30T22:24:18.143Z,2.87
2022-10-30T22:26:46.194Z,2.97
2022-10-30T22:29:13.344Z,3.77
2022-10-30T22:31:40.263Z,3.70
2022-10-30T22:34:07.231Z,3.73
2022-10-30T22:36:34.713Z,3.60
2022-10-30T22:39:07.716Z,3.60
2022-10-30T22:41:37.521Z,3.53
2022-10-30T22:44:08.098Z,3.00
2022-10-30T22:46:36.285Z,3.57
2022-10-30T22:49:04.156Z,3.57
2022-10-30T22:51:35.909Z,2.97
2022-10-30T22:54:05.257Z,3.50
2022-10-30T22:56:34.005Z,3.20
2022-10-30T22:59:11.179Z,3.50
2022-10-30T23:01:39.399Z,3.70
2022-10-30T23:04:08.109Z,3.80
2022-10-30T23:06:36.064Z,3.37
2022-10-30T23:09:07.350Z,3.40
2022-10-30T23:11:34.533Z,3.37
2022-10-30T23:14:01.591Z,3.90
2022-10-30T23:16:28.966Z,4.00
2022-10-30T23:18:57.553Z,3.17
2022-10-30T23:21:28.240Z,3.37
2022-10-30T23:23:55.656Z,3.70
2022-10-30T23:26:25.823Z,3.50
2022-10-30T23:28:55.032Z,3.50
2022-10-30T23:31:43.085Z,3.60
2022-10-30T23:34:15.223Z,3.70
2022-10-30T23:36:43.213Z,3.73
2022-10-30T23:39:14.937Z,3.83
2022-10-30T23:41:42.260Z,4.00
2022-10-30T23:44:14.153Z,3.50
2022-10-30T23:46:41.940Z,3.57
2022-10-30T23:49:09.096Z,3.80
2022-10-30T23:51:36.126Z,3.77
2022-10-30T23:54:04.119Z,3.90
2022-10-30T23:56:31.691Z,3.00
2022-10-30T23:58:58.943Z,3.60
